createdAt,value
2017-12-15T00:01:09.084Z,88.86
2017-12-15T00:03:34.835Z,89.09
2017-12-15T00:06:00.590Z,88.84
2017-12-15T00:08:26.369Z,88.74
2017-12-15T00:10:52.152Z,89.06
2017-12-15T00:13:17.912Z,89.09
2017-12-15T00:15:43.664Z,89.42
2017-12-15T00:18:09.431Z,89.79
2017-12-15T00:20:35.199Z,89.46
2017-12-15T00:23:00.971Z,89.30
2017-12-15T00:25:26.745Z,89.08
2017-12-15T00:27:52.501Z,89.01
2017-12-15T00:30:18.275Z,88.87
2017-12-15T00:32:44.024Z,89.07
2017-12-15T00:35:09.799Z,89.22
2017-12-15T00:37:35.561Z,89.12
2017-12-15T00:40:01.328Z,89.13
2017-12-15T00:42:27.074Z,89.40
2017-12-15T00:44:52.853Z,89.46
2017-12-15T00:47:18.620Z,89.57
2017-12-15T00:49:44.392Z,89.45
2017-12-15T00:52:10.160Z,89.06
2017-12-15T00:54:35.917Z,88.42
2017-12-15T00:57:01.688Z,88.22
2017-12-15T00:59:27.448Z,88.89
2017-12-15T01:01:53.227Z,89.14
2017-12-15T01:04:19.012Z,89.23
2017-12-15T01:06:44.771Z,88.53
2017-12-15T01:09:10.570Z,88.78
2017-12-15T01:11:36.314Z,88.77
2017-12-15T01:14:02.079Z,88.75
2017-12-15T01:16:27.856Z,88.71
2017-12-15T01:18:53.608Z,88.24
2017-12-15T01:21:19.378Z,87.75
2017-12-15T01:23:45.123Z,87.97
2017-12-15T01:26:10.910Z,87.99
2017-12-15T01:28:36.662Z,88.36
2017-12-15T01:31:02.433Z,88.38
2017-12-15T01:33:28.199Z,88.22
2017-12-15T01:35:53.967Z,88.02
2017-12-15T01:38:19.719Z,88.17
2017-12-15T01:40:45.494Z,88.09
2017-12-15T01:43:11.264Z,88.35
2017-12-15T01:45:37.018Z,88.31
2017-12-15T01:48:02.802Z,87.80
2017-12-15T01:50:28.569Z,87.89
2017-12-15T01:52:54.343Z,87.71
2017-12-15T01:55:20.099Z,87.36
2017-12-15T01:57:45.879Z,87.37
2017-12-15T02:00:11.648Z,87.10
2017-12-15T02:02:37.428Z,86.79
2017-12-15T02:05:03.179Z,86.49
2017-12-15T02:07:28.942Z,86.25
2017-12-15T02:09:54.691Z,85.82
2017-12-15T02:12:20.444Z,86.01
2017-12-15T02:14:46.190Z,86.20
2017-12-15T02:17:11.988Z,86.05
2017-12-15T02:19:37.759Z,86.09
2017-12-15T02:22:03.514Z,86.02
2017-12-15T02:24:29.291Z,85.80
2017-12-15T02:26:55.062Z,85.63
2017-12-15T02:29:20.830Z,85.91
2017-12-15T02:31:46.589Z,85.76
2017-12-15T02:34:12.381Z,85.72
2017-12-15T02:36:38.148Z,86.01
2017-12-15T02:39:04.007Z,86.44
2017-12-15T02:41:29.755Z,86.92
2017-12-15T02:43:55.521Z,87.14
2017-12-15T02:46:21.295Z,87.43
2017-12-15T02:48:47.064Z,87.33
2017-12-15T02:51:12.811Z,87.51
2017-12-15T02:53:38.585Z,87.66
2017-12-15T02:56:04.335Z,87.14
2017-12-15T02:58:30.120Z,87.37
2017-12-15T03:00:55.887Z,87.37
2017-12-15T03:03:21.651Z,87.18
2017-12-15T03:05:47.423Z,87.27
2017-12-15T03:08:13.182Z,87.13
2017-12-15T03:10:38.961Z,87.10
2017-12-15T03:13:04.720Z,86.93
2017-12-15T03:15:30.487Z,87.04
2017-12-15T03:17:56.230Z,87.22
2017-12-15T03:20:21.995Z,87.65
2017-12-15T03:22:47.742Z,87.47
2017-12-15T03:25:13.513Z,87.26
2017-12-15T03:27:39.273Z,87.17
2017-12-15T03:30:05.046Z,86.89
2017-12-15T03:32:30.816Z,87.30
2017-12-15T03:34:56.581Z,87.61
2017-12-15T03:37:22.337Z,87.83
2017-12-15T03:39:48.126Z,87.08
2017-12-15T03:42:13.870Z,87.57
2017-12-15T03:44:39.658Z,87.96
2017-12-15T03:47:05.414Z,88.23
2017-12-15T03:49:31.162Z,88.26
2017-12-15T03:51:56.933Z,88.17
2017-12-15T03:54:22.680Z,88.17
2017-12-15T03:56:48.447Z,88.37
2017-12-15T03:59:14.194Z,88.21
2017-12-15T04:01:39.961Z,88.25
2017-12-15T04:04:05.703Z,88.36
2017-12-15T04:06:31.488Z,88.60
2017-12-15T04:08:57.269Z,88.25
2017-12-15T04:11:23.041Z,88.52
2017-12-15T04:13:48.801Z,88.70
2017-12-15T04:16:14.572Z,88.52
2017-12-15T04:18:40.349Z,88.49
2017-12-15T04:21:06.123Z,88.00
2017-12-15T04:23:31.883Z,87.94
2017-12-15T04:25:57.655Z,87.78
2017-12-15T04:28:23.412Z,87.62
2017-12-15T04:30:49.173Z,87.58
2017-12-15T04:33:14.939Z,87.49
2017-12-15T04:35:40.723Z,87.81
2017-12-15T04:38:06.484Z,87.83
2017-12-15T04:40:32.236Z,87.79
2017-12-15T04:42:57.999Z,87.11
2017-12-15T04:45:23.755Z,86.79
2017-12-15T04:47:49.531Z,86.73
2017-12-15T04:50:15.271Z,86.41
2017-12-15T04:52:41.063Z,86.38
2017-12-15T04:55:06.810Z,86.61
2017-12-15T04:57:32.565Z,87.06
2017-12-15T04:59:58.337Z,87.05
2017-12-15T05:02:24.091Z,87.13
2017-12-15T05:04:49.855Z,87.46
2017-12-15T05:07:15.615Z,87.30
2017-12-15T05:09:41.381Z,87.39
2017-12-15T05:12:07.127Z,87.23
2017-12-15T05:14:32.891Z,87.42
2017-12-15T05:16:58.664Z,87.61
2017-12-15T05:19:24.419Z,87.79
2017-12-15T05:21:50.173Z,88.18
2017-12-15T05:24:15.939Z,88.75
2017-12-15T05:26:41.680Z,88.92
2017-12-15T05:29:07.455Z,89.24
2017-12-15T05:31:33.222Z,89.20
2017-12-15T05:33:58.986Z,89.38
2017-12-15T05:36:24.736Z,89.51
2017-12-15T05:38:50.496Z,89.03
2017-12-15T05:41:16.253Z,89.42
2017-12-15T05:43:42.021Z,88.72
2017-12-15T05:46:07.787Z,88.71
2017-12-15T05:48:33.551Z,88.34
2017-12-15T05:50:59.308Z,88.05
2017-12-15T05:53:25.054Z,87.92
2017-12-15T05:55:50.820Z,88.15
2017-12-15T05:58:16.568Z,88.19
2017-12-15T06:00:42.328Z,88.21
2017-12-15T06:03:08.079Z,87.36
2017-12-15T06:05:33.847Z,87.37
2017-12-15T06:07:59.591Z,86.83
2017-12-15T06:10:25.347Z,86.44
2017-12-15T06:12:51.106Z,86.22
2017-12-15T06:17:58.797Z,85.92
2017-12-15T06:20:24.567Z,85.81
2017-12-15T06:22:50.312Z,85.76
2017-12-15T06:25:16.075Z,85.96
2017-12-15T06:27:41.824Z,86.59
2017-12-15T06:30:07.589Z,87.08
2017-12-15T06:32:33.355Z,87.21
2017-12-15T06:34:59.121Z,87.04
2017-12-15T06:37:24.876Z,86.63
2017-12-15T06:39:50.614Z,86.18
2017-12-15T06:42:16.399Z,86.46
2017-12-15T06:44:42.163Z,86.79
2017-12-15T06:47:07.923Z,86.47
2017-12-15T06:49:33.674Z,86.42
2017-12-15T06:51:59.435Z,86.45
2017-12-15T06:54:25.196Z,86.62
2017-12-15T06:56:50.955Z,86.55
2017-12-15T06:59:16.707Z,86.57
2017-12-15T07:01:42.455Z,86.31
2017-12-15T07:04:08.211Z,86.38
2017-12-15T07:06:34.039Z,86.59
2017-12-15T07:08:59.747Z,86.41
2017-12-15T07:11:25.504Z,86.44
2017-12-15T07:13:51.271Z,86.43
2017-12-15T07:16:17.019Z,86.35
2017-12-15T07:18:42.772Z,86.12
2017-12-15T07:21:08.510Z,85.68
2017-12-15T07:23:34.268Z,85.88
2017-12-15T07:26:00.014Z,85.53
2017-12-15T07:28:25.774Z,85.11
2017-12-15T07:30:51.536Z,84.95
2017-12-15T07:33:17.307Z,84.84
2017-12-15T07:35:43.046Z,85.13
2017-12-15T07:38:08.791Z,85.29
2017-12-15T07:40:34.565Z,84.95
2017-12-15T07:43:00.324Z,84.74
2017-12-15T07:45:26.146Z,84.53
2017-12-15T07:47:51.863Z,84.66
2017-12-15T07:50:17.627Z,84.66
2017-12-15T07:52:43.383Z,84.67
2017-12-15T07:55:09.144Z,84.43
2017-12-15T07:57:34.908Z,84.72
2017-12-15T08:00:00.673Z,84.73
2017-12-15T08:02:26.415Z,84.96
2017-12-15T08:04:52.174Z,84.76
2017-12-15T08:07:18.033Z,84.84
2017-12-15T08:09:43.699Z,84.69
2017-12-15T08:12:09.447Z,84.23
2017-12-15T08:14:35.213Z,84.31
2017-12-15T08:17:00.963Z,84.07
2017-12-15T08:19:26.728Z,83.47
2017-12-15T08:21:52.473Z,83.77
2017-12-15T08:24:18.239Z,83.32
2017-12-15T08:26:44.011Z,83.27
2017-12-15T08:29:09.750Z,83.19
2017-12-15T08:31:35.527Z,83.50
2017-12-15T08:34:01.304Z,84.23
2017-12-15T08:36:27.076Z,84.46
2017-12-15T08:38:52.821Z,84.41
2017-12-15T08:41:18.597Z,84.09
2017-12-15T08:43:44.341Z,84.42
2017-12-15T08:46:10.102Z,83.96
2017-12-15T08:48:35.870Z,83.38
2017-12-15T08:51:01.622Z,83.67
2017-12-15T08:53:27.382Z,83.32
2017-12-15T08:55:53.135Z,83.49
2017-12-15T08:58:18.890Z,84.04
2017-12-15T09:00:44.659Z,83.77
2017-12-15T09:03:10.411Z,83.89
2017-12-15T09:05:36.175Z,83.44
2017-12-15T09:08:01.931Z,83.79
2017-12-15T09:10:27.691Z,84.12
2017-12-15T09:12:53.455Z,84.61
2017-12-15T09:15:19.210Z,84.13
2017-12-15T09:17:44.980Z,84.06
2017-12-15T09:20:10.727Z,84.85
2017-12-15T09:22:36.493Z,84.74
2017-12-15T09:25:02.244Z,83.86
2017-12-15T09:27:27.995Z,84.34
2017-12-15T09:29:53.756Z,84.22
2017-12-15T09:32:19.507Z,84.43
2017-12-15T09:34:45.263Z,84.53
2017-12-15T09:37:11.016Z,85.29
2017-12-15T09:39:36.758Z,84.94
2017-12-15T09:42:02.523Z,84.33
2017-12-15T09:44:28.276Z,84.31
2017-12-15T09:46:54.034Z,83.81
2017-12-15T09:49:19.796Z,83.65
2017-12-15T09:51:45.555Z,83.00
2017-12-15T09:54:11.319Z,83.35
2017-12-15T09:56:37.072Z,83.16
2017-12-15T09:59:02.835Z,82.38
2017-12-15T10:01:28.599Z,83.11
2017-12-15T10:03:54.352Z,82.41
2017-12-15T10:06:20.102Z,82.29
2017-12-15T10:08:45.867Z,82.10
2017-12-15T10:11:11.611Z,82.75
2017-12-15T10:13:37.357Z,84.67
2017-12-15T10:16:03.134Z,84.19
2017-12-15T10:18:28.875Z,83.23
2017-12-15T10:20:54.641Z,83.56
2017-12-15T10:23:20.399Z,83.34
2017-12-15T10:25:46.151Z,83.84
2017-12-15T10:28:11.898Z,83.39
2017-12-15T10:30:37.667Z,83.71
2017-12-15T10:33:03.426Z,83.43
2017-12-15T10:35:29.193Z,83.12
2017-12-15T10:37:54.939Z,83.88
2017-12-15T10:40:20.691Z,83.09
2017-12-15T10:42:46.433Z,83.67
2017-12-15T10:45:12.196Z,83.60
2017-12-15T10:47:37.954Z,83.61
2017-12-15T10:50:03.724Z,84.00
2017-12-15T10:52:29.476Z,83.58
2017-12-15T10:54:55.233Z,84.14
2017-12-15T10:57:20.968Z,84.44
2017-12-15T10:59:46.728Z,84.09
2017-12-15T11:02:12.491Z,84.82
2017-12-15T11:04:38.244Z,84.15
2017-12-15T11:07:04.012Z,84.17
2017-12-15T11:09:29.756Z,84.06
2017-12-15T11:11:56.127Z,83.01
2017-12-15T11:14:21.898Z,82.88
2017-12-15T11:16:47.663Z,83.13
2017-12-15T11:19:13.411Z,83.64
2017-12-15T11:21:39.176Z,84.12
2017-12-15T11:24:04.932Z,83.66
2017-12-15T11:26:30.751Z,83.86
2017-12-15T11:28:56.571Z,83.88
2017-12-15T11:31:22.275Z,83.60
2017-12-15T11:33:48.043Z,84.65
2017-12-15T11:36:13.803Z,83.98
2017-12-15T11:38:39.543Z,84.12
2017-12-15T11:41:05.286Z,84.57
2017-12-15T11:43:31.057Z,84.73
2017-12-15T11:45:56.807Z,84.95
2017-12-15T11:48:22.588Z,84.73
2017-12-15T11:50:48.342Z,84.20
2017-12-15T11:53:14.103Z,84.34
2017-12-15T11:55:39.868Z,84.29
2017-12-15T11:58:05.631Z,84.52
2017-12-15T12:00:31.387Z,83.87
2017-12-15T12:02:57.154Z,84.40
2017-12-15T12:05:22.908Z,84.22
2017-12-15T12:07:48.676Z,83.96
2017-12-15T12:10:14.428Z,84.46
2017-12-15T12:12:40.184Z,84.18
2017-12-15T12:15:05.954Z,84.38
2017-12-15T12:17:31.713Z,84.20
2017-12-15T12:19:57.473Z,84.65
2017-12-15T12:22:23.231Z,84.66
2017-12-15T12:24:48.999Z,84.57
2017-12-15T12:27:14.762Z,84.17
2017-12-15T12:29:40.532Z,84.46
2017-12-15T12:32:06.292Z,84.64
2017-12-15T12:34:32.067Z,84.63
2017-12-15T12:36:57.808Z,84.81
2017-12-15T12:39:23.571Z,84.77
2017-12-15T12:41:49.310Z,84.20
2017-12-15T12:44:15.060Z,84.64
2017-12-15T12:46:40.816Z,84.71
2017-12-15T12:49:06.582Z,84.97
2017-12-15T12:51:32.326Z,84.92
2017-12-15T12:53:58.072Z,84.88
2017-12-15T12:56:23.835Z,84.62
2017-12-15T12:58:49.584Z,84.61
2017-12-15T13:01:15.364Z,84.98
2017-12-15T13:03:41.120Z,85.62
2017-12-15T13:06:06.887Z,85.96
2017-12-15T13:08:32.627Z,85.35
2017-12-15T13:10:58.397Z,85.31
2017-12-15T13:13:24.148Z,85.60
2017-12-15T13:15:49.920Z,86.38
2017-12-15T13:18:15.683Z,86.00
2017-12-15T13:20:41.470Z,86.17
2017-12-15T13:23:07.263Z,86.41
2017-12-15T13:25:33.030Z,86.50
2017-12-15T13:27:58.779Z,86.63
2017-12-15T13:30:24.536Z,86.46
2017-12-15T13:32:50.304Z,86.45
2017-12-15T13:35:16.068Z,86.22
2017-12-15T13:37:41.824Z,86.15
2017-12-15T13:40:07.585Z,86.01
2017-12-15T13:42:33.354Z,85.85
2017-12-15T13:44:59.091Z,86.23
2017-12-15T13:47:24.859Z,86.72
2017-12-15T13:49:50.748Z,85.93
2017-12-15T13:52:16.530Z,85.63
2017-12-15T13:54:42.299Z,85.80
2017-12-15T13:57:08.046Z,85.63
2017-12-15T13:59:33.822Z,85.75
2017-12-15T14:01:59.583Z,85.80
2017-12-15T14:04:25.346Z,85.78
2017-12-15T14:06:51.135Z,86.21
2017-12-15T14:09:16.872Z,85.89
2017-12-15T14:11:42.617Z,85.93
2017-12-15T14:14:08.362Z,84.92
2017-12-15T14:16:34.119Z,85.43
2017-12-15T14:18:59.880Z,85.34
2017-12-15T14:21:25.640Z,85.77
2017-12-15T14:23:51.420Z,85.39
2017-12-15T14:26:17.179Z,85.38
2017-12-15T14:28:42.942Z,85.03
2017-12-15T14:31:08.702Z,84.98
2017-12-15T14:33:34.483Z,84.82
2017-12-15T14:36:00.232Z,84.73
2017-12-15T14:38:26.002Z,84.51
2017-12-15T14:40:51.748Z,84.47
2017-12-15T14:43:17.504Z,84.44
2017-12-15T14:45:43.276Z,84.59
2017-12-15T14:48:09.033Z,84.75
2017-12-15T14:50:34.800Z,84.76
2017-12-15T14:53:00.556Z,84.65
2017-12-15T14:55:26.326Z,84.47
2017-12-15T14:57:52.072Z,84.70
2017-12-15T15:00:17.860Z,84.44
2017-12-15T15:02:43.648Z,84.68
2017-12-15T15:05:09.416Z,84.65
2017-12-15T15:07:35.171Z,84.42
2017-12-15T15:10:00.948Z,84.50
2017-12-15T15:12:26.688Z,84.96
2017-12-15T15:14:52.444Z,85.65
2017-12-15T15:17:18.230Z,85.13
2017-12-15T15:19:43.956Z,84.96
2017-12-15T15:22:09.714Z,85.21
2017-12-15T15:24:35.482Z,85.37
2017-12-15T15:27:01.226Z,85.44
2017-12-15T15:29:26.975Z,85.28
2017-12-15T15:31:52.744Z,84.89
2017-12-15T15:34:18.511Z,84.95
2017-12-15T15:36:44.275Z,84.97
2017-12-15T15:39:10.035Z,84.94
2017-12-15T15:41:35.815Z,84.81
2017-12-15T15:44:01.594Z,84.25
2017-12-15T15:46:27.352Z,84.34
2017-12-15T15:48:53.132Z,84.61
2017-12-15T15:51:18.911Z,84.17
2017-12-15T15:53:44.743Z,84.42
2017-12-15T15:56:10.515Z,84.13
2017-12-15T15:58:36.310Z,84.04
2017-12-15T16:01:02.068Z,83.85
2017-12-15T16:03:27.845Z,84.13
2017-12-15T16:05:53.619Z,84.05
2017-12-15T16:08:19.419Z,83.88
2017-12-15T16:10:45.175Z,83.86
2017-12-15T16:13:10.968Z,84.24
2017-12-15T16:15:36.728Z,84.24
2017-12-15T16:18:02.491Z,84.24
2017-12-15T16:20:28.252Z,84.30
2017-12-15T16:22:54.011Z,84.53
2017-12-15T16:25:20.335Z,84.97
2017-12-15T16:27:52.074Z,85.38
2017-12-15T16:30:18.045Z,85.48
2017-12-15T16:32:44.480Z,85.60
2017-12-15T16:35:11.148Z,86.03
2017-12-15T16:37:37.261Z,86.14
2017-12-15T16:40:04.593Z,86.53
2017-12-15T16:42:30.371Z,86.22
2017-12-15T16:44:56.404Z,86.29
2017-12-15T16:47:22.639Z,86.20
2017-12-15T16:49:48.579Z,86.27
2017-12-15T16:52:14.689Z,86.57
2017-12-15T16:54:40.615Z,85.89
2017-12-15T16:57:06.549Z,85.81
2017-12-15T16:59:32.371Z,86.00
2017-12-15T17:01:58.132Z,85.49
2017-12-15T17:04:23.899Z,85.41
2017-12-15T17:06:49.706Z,85.89
2017-12-15T17:09:16.612Z,85.56
2017-12-15T17:11:42.400Z,84.60
2017-12-15T17:14:08.199Z,85.69
2017-12-15T17:16:33.965Z,85.04
2017-12-15T17:18:59.716Z,85.12
2017-12-15T17:21:25.502Z,85.07
2017-12-15T17:23:51.276Z,84.57
2017-12-15T17:26:17.038Z,84.57
2017-12-15T17:28:42.784Z,85.01
2017-12-15T17:31:08.560Z,84.77
2017-12-15T17:33:34.335Z,84.54
2017-12-15T17:36:00.115Z,85.18
2017-12-15T17:38:25.894Z,84.54
2017-12-15T17:40:51.652Z,84.93
2017-12-15T17:43:17.394Z,84.93
2017-12-15T17:45:43.160Z,84.42
2017-12-15T17:48:08.918Z,84.71
2017-12-15T17:50:34.684Z,85.65
2017-12-15T17:53:00.489Z,85.06
2017-12-15T17:56:22.295Z,83.12
2017-12-15T17:58:48.056Z,86.23
2017-12-15T18:01:13.868Z,87.59
2017-12-15T18:03:39.628Z,88.18
2017-12-15T18:06:05.396Z,88.63
2017-12-15T18:08:31.157Z,88.66
2017-12-15T18:10:58.273Z,88.53
2017-12-15T18:13:25.549Z,88.79
2017-12-15T18:15:53.080Z,88.59
2017-12-15T18:18:18.920Z,88.64
2017-12-15T18:20:44.670Z,88.46
2017-12-15T18:23:10.441Z,88.82
2017-12-15T18:25:36.197Z,88.75
2017-12-15T18:28:01.973Z,88.58
2017-12-15T18:30:27.733Z,89.12
2017-12-15T18:32:53.508Z,89.14
2017-12-15T18:35:19.378Z,89.12
2017-12-15T18:37:45.248Z,89.03
2017-12-15T18:40:10.996Z,89.21
2017-12-15T18:42:36.763Z,89.34
2017-12-15T18:45:02.511Z,89.24
2017-12-15T18:47:28.283Z,89.30
2017-12-15T18:49:54.055Z,89.27
2017-12-15T18:52:19.832Z,89.02
2017-12-15T18:54:45.598Z,89.07
2017-12-15T18:57:11.347Z,89.29
2017-12-15T18:59:37.215Z,89.49
2017-12-15T19:02:03.023Z,89.54
2017-12-15T19:04:28.803Z,89.76
2017-12-15T19:06:54.718Z,90.15
2017-12-15T19:10:17.336Z,78.30
2017-12-15T19:12:43.110Z,83.67
2017-12-15T19:15:08.862Z,82.29
2017-12-15T19:17:34.611Z,84.87
2017-12-15T19:20:00.387Z,84.53
2017-12-15T19:22:26.147Z,84.36
2017-12-15T19:24:52.152Z,84.52
2017-12-15T19:27:17.918Z,83.87
2017-12-15T19:29:43.745Z,83.97
2017-12-15T19:32:09.461Z,84.42
2017-12-15T19:34:35.224Z,83.94
2017-12-15T19:37:00.982Z,83.63
2017-12-15T19:39:26.747Z,84.03
2017-12-15T19:41:52.507Z,83.95
2017-12-15T19:44:18.268Z,84.81
2017-12-15T19:46:44.023Z,84.38
2017-12-15T19:49:09.792Z,84.40
2017-12-15T19:51:35.535Z,84.68
2017-12-15T19:54:01.327Z,84.15
2017-12-15T19:56:27.059Z,84.08
2017-12-15T19:58:52.846Z,84.09
2017-12-15T20:01:18.591Z,84.34
2017-12-15T20:03:44.390Z,84.17
2017-12-15T20:06:10.175Z,83.99
2017-12-15T20:08:36.105Z,83.77
2017-12-15T20:11:01.881Z,83.77
2017-12-15T20:13:27.636Z,83.42
2017-12-15T20:15:53.413Z,83.23
2017-12-15T20:18:19.172Z,83.09
2017-12-15T20:20:44.947Z,82.88
2017-12-15T20:23:10.688Z,83.51
2017-12-15T20:25:36.492Z,82.79
2017-12-15T20:28:02.275Z,82.86
2017-12-15T20:30:28.058Z,82.73
2017-12-15T20:32:53.836Z,83.05
2017-12-15T20:35:19.638Z,82.84
2017-12-15T20:37:45.390Z,83.36
2017-12-15T20:40:11.149Z,82.94
2017-12-15T20:42:36.916Z,82.98
2017-12-15T20:45:02.676Z,82.92
2017-12-15T20:47:28.440Z,82.69
2017-12-15T20:52:26.798Z,82.12
2017-12-15T20:54:52.547Z,82.75
2017-12-15T20:57:18.315Z,83.07
2017-12-15T20:59:44.089Z,82.60
2017-12-15T21:02:09.835Z,82.78
2017-12-15T21:04:35.595Z,82.32
2017-12-15T21:07:01.364Z,81.52
2017-12-15T21:09:27.150Z,81.97
2017-12-15T21:11:52.936Z,82.49
2017-12-15T21:14:18.812Z,83.02
2017-12-15T21:16:44.605Z,82.22
2017-12-15T21:19:10.343Z,82.18
2017-12-15T21:21:36.078Z,82.71
2017-12-15T21:24:01.824Z,82.32
2017-12-15T21:26:27.578Z,83.04
2017-12-15T21:28:53.347Z,82.27
2017-12-15T21:31:19.103Z,83.21
2017-12-15T21:33:44.878Z,83.55
2017-12-15T21:36:10.627Z,83.01
2017-12-15T21:38:36.388Z,82.75
2017-12-15T21:41:02.135Z,82.92
2017-12-15T21:43:27.905Z,83.29
2017-12-15T21:45:53.647Z,83.12
2017-12-15T21:48:19.415Z,83.43
2017-12-15T21:50:45.168Z,82.34
2017-12-15T21:53:10.924Z,82.17
2017-12-15T21:55:36.650Z,82.23
2017-12-15T21:58:09.435Z,81.77
2017-12-15T22:00:35.191Z,82.50
2017-12-15T22:03:00.968Z,81.88
2017-12-15T22:05:26.720Z,82.45
2017-12-15T22:07:52.475Z,82.65
2017-12-15T22:10:18.215Z,82.40
2017-12-15T22:12:43.967Z,82.30
2017-12-15T22:15:09.743Z,82.23
2017-12-15T22:17:35.487Z,82.31
2017-12-15T22:20:01.251Z,82.89
2017-12-15T22:22:27.011Z,82.24
2017-12-15T22:24:52.772Z,81.68
2017-12-15T22:27:18.543Z,82.26
2017-12-15T22:29:44.304Z,82.41
2017-12-15T22:32:10.059Z,82.85
2017-12-15T22:34:35.843Z,82.29
2017-12-15T22:37:01.592Z,81.98
2017-12-15T22:39:27.346Z,82.39
2017-12-15T22:41:53.095Z,82.98
2017-12-15T22:44:18.869Z,83.27
2017-12-15T22:46:44.615Z,82.73
2017-12-15T22:49:10.364Z,82.96
2017-12-15T22:51:36.126Z,82.20
2017-12-15T22:54:01.907Z,82.81
2017-12-15T22:56:27.647Z,82.19
2017-12-15T22:58:53.405Z,82.11
2017-12-15T23:01:19.172Z,82.20
2017-12-15T23:03:44.930Z,82.76
2017-12-15T23:06:10.687Z,82.49
2017-12-15T23:08:36.475Z,83.39
2017-12-15T23:11:02.236Z,82.45
2017-12-15T23:13:27.992Z,82.90
2017-12-15T23:15:53.756Z,83.03
2017-12-15T23:18:19.491Z,83.69
2017-12-15T23:20:45.243Z,83.82
2017-12-15T23:23:10.995Z,83.33
2017-12-15T23:25:36.755Z,84.16
2017-12-15T23:28:02.511Z,83.80
2017-12-15T23:30:28.272Z,82.93
2017-12-15T23:32:54.022Z,83.05
2017-12-15T23:35:19.803Z,83.03
2017-12-15T23:37:45.568Z,82.24
2017-12-15T23:40:11.506Z,82.81
2017-12-15T23:42:37.247Z,83.41
2017-12-15T23:45:03.035Z,83.48
2017-12-15T23:47:28.804Z,83.84
2017-12-15T23:49:54.611Z,84.17
2017-12-15T23:52:20.534Z,84.18
2017-12-15T23:54:58.766Z,83.76
2017-12-15T23:57:24.518Z,83.52
2017-12-15T23:59:50.331Z,83.37
